createdAt,value
2022-11-06T00:00:26.433Z,32.67
2022-11-06T00:03:11.959Z,31.00
2022-11-06T00:06:15.974Z,32.45
2022-11-06T00:09:03.935Z,33.38
2022-11-06T00:11:50.924Z,35.13
2022-11-06T00:14:36.497Z,31.95
2022-11-06T00:17:21.989Z,30.80
2022-11-06T00:20:11.075Z,29.70
2022-11-06T00:22:56.375Z,29.17
2022-11-06T00:25:41.901Z,29.17
2022-11-06T00:28:27.443Z,30.85
2022-11-06T00:31:19.054Z,29.05
2022-11-06T00:34:09.082Z,28.45
2022-11-06T00:36:54.747Z,28.45
2022-11-06T00:39:40.132Z,28.55
2022-11-06T00:42:25.585Z,29.67
2022-11-06T00:45:11.190Z,28.60
2022-11-06T00:47:56.502Z,29.33
2022-11-06T00:50:41.859Z,29.45
2022-11-06T00:53:27.405Z,29.52
2022-11-06T00:56:18.491Z,28.13
2022-11-06T00:59:06.663Z,27.10
2022-11-06T01:01:52.013Z,26.70
2022-11-06T01:04:37.256Z,27.00
2022-11-06T01:07:24.188Z,28.63
2022-11-06T01:10:10.306Z,27.90
2022-11-06T01:12:55.983Z,26.05
2022-11-06T01:15:41.554Z,26.60
2022-11-06T01:18:26.662Z,29.52
2022-11-06T01:21:15.501Z,28.65
2022-11-06T01:24:04.592Z,27.33
2022-11-06T01:27:19.783Z,26.80
2022-11-06T01:29:56.841Z,26.42
2022-11-06T01:32:42.215Z,28.88
2022-11-06T01:35:27.639Z,27.23
2022-11-06T01:38:13.907Z,27.63
2022-11-06T01:40:59.584Z,25.95
2022-11-06T01:43:51.034Z,27.27
2022-11-06T01:46:36.690Z,26.55
2022-11-06T01:49:21.989Z,26.65
2022-11-06T01:52:13.052Z,27.35
2022-11-06T01:55:08.829Z,26.17
2022-11-06T01:57:55.442Z,26.45
2022-11-06T02:00:41.715Z,25.35
2022-11-06T02:03:27.182Z,27.48
2022-11-06T02:06:12.915Z,25.92
2022-11-06T02:08:58.410Z,25.40
2022-11-06T02:11:50.433Z,25.73
2022-11-06T02:15:13.959Z,26.10
2022-11-06T02:18:05.313Z,25.55
2022-11-06T02:21:03.656Z,24.08
2022-11-06T02:24:08.000Z,25.48
2022-11-06T02:27:13.474Z,26.85
2022-11-06T02:30:04.227Z,26.38
2022-11-06T02:32:58.466Z,25.63
2022-11-06T02:35:50.866Z,25.95
2022-11-06T02:38:49.089Z,26.27
2022-11-06T02:41:39.686Z,25.70
2022-11-06T02:44:27.706Z,27.63
2022-11-06T02:47:15.054Z,27.65
2022-11-06T02:50:15.715Z,27.52
2022-11-06T02:53:05.044Z,28.27
2022-11-06T02:55:53.283Z,28.65
2022-11-06T02:58:46.146Z,28.52
2022-11-06T03:01:43.108Z,26.48
2022-11-06T03:04:37.662Z,26.45
2022-11-06T03:07:38.524Z,26.77
2022-11-06T03:10:28.378Z,25.63
2022-11-06T03:13:32.656Z,27.88
2022-11-06T03:16:36.510Z,27.27
2022-11-06T03:19:31.152Z,27.35
2022-11-06T03:22:45.191Z,26.25
2022-11-06T03:25:41.059Z,29.25
2022-11-06T03:28:34.530Z,26.35
2022-11-06T03:31:27.924Z,25.70
2022-11-06T03:34:22.534Z,26.15
2022-11-06T03:37:15.950Z,26.08
2022-11-06T03:40:08.608Z,25.83
2022-11-06T03:42:57.938Z,28.00
2022-11-06T03:45:45.465Z,28.15
2022-11-06T03:48:37.938Z,26.58
2022-11-06T03:51:32.334Z,27.77
2022-11-06T03:54:25.333Z,27.80
2022-11-06T03:57:17.223Z,27.15
2022-11-06T04:00:05.310Z,27.23
2022-11-06T04:03:05.885Z,27.58
2022-11-06T04:05:56.534Z,26.88
2022-11-06T04:09:01.728Z,25.88
2022-11-06T04:12:07.940Z,28.50
2022-11-06T04:14:57.575Z,26.30
2022-11-06T04:17:42.988Z,27.23
2022-11-06T04:20:55.898Z,29.02
2022-11-06T04:24:29.303Z,27.75
2022-11-06T04:30:11.947Z,26.02
2022-11-06T04:33:16.231Z,29.38
2022-11-06T04:36:16.466Z,25.58
2022-11-06T04:39:13.238Z,26.05
2022-11-06T04:42:16.510Z,27.63
2022-11-06T04:45:08.466Z,25.95
2022-11-06T04:47:55.202Z,26.98
2022-11-06T04:50:46.904Z,26.52
2022-11-06T04:53:34.360Z,26.92
2022-11-06T04:56:29.506Z,26.35
2022-11-06T04:59:18.462Z,27.98
2022-11-06T05:02:05.495Z,24.98
2022-11-06T05:04:51.198Z,26.45
2022-11-06T05:07:36.435Z,25.77
2022-11-06T05:10:21.879Z,27.35
2022-11-06T05:13:07.595Z,26.60
2022-11-06T05:15:57.775Z,27.13
2022-11-06T05:18:43.409Z,26.13
2022-11-06T05:21:47.463Z,27.15
2022-11-06T05:24:32.934Z,26.90
2022-11-06T05:27:18.288Z,26.38
2022-11-06T05:30:03.957Z,25.13
2022-11-06T05:32:49.547Z,26.67
2022-11-06T05:35:35.024Z,26.75
2022-11-06T05:38:20.729Z,26.02
2022-11-06T05:41:06.338Z,27.13
2022-11-06T05:43:51.923Z,25.17
2022-11-06T05:46:53.335Z,22.95
2022-11-06T05:49:38.747Z,22.45
2022-11-06T05:52:24.578Z,23.48
2022-11-06T05:55:14.769Z,24.02
2022-11-06T05:58:01.868Z,22.55
2022-11-06T06:00:47.499Z,21.88
2022-11-06T06:03:32.827Z,23.60
2022-11-06T06:06:19.892Z,23.48
2022-11-06T06:09:05.601Z,22.45
2022-11-06T06:11:52.662Z,22.45
2022-11-06T06:14:38.294Z,22.77
2022-11-06T06:17:23.645Z,23.25
2022-11-06T06:20:10.347Z,20.80
2022-11-06T06:22:57.249Z,20.38
2022-11-06T06:25:43.160Z,19.63
2022-11-06T06:28:28.552Z,20.35
2022-11-06T06:31:14.254Z,21.00
2022-11-06T06:33:59.634Z,21.35
2022-11-06T06:36:45.234Z,20.23
2022-11-06T06:39:31.137Z,19.88
2022-11-06T06:42:17.172Z,19.40
2022-11-06T06:45:03.264Z,20.83
2022-11-06T06:47:49.883Z,20.02
2022-11-06T06:50:35.755Z,23.02
2022-11-06T06:53:21.863Z,26.33
2022-11-06T06:56:07.266Z,27.05
2022-11-06T06:58:56.186Z,23.13
2022-11-06T07:01:42.824Z,24.90
2022-11-06T07:04:28.790Z,24.17
2022-11-06T07:07:14.214Z,25.52
2022-11-06T07:10:00.053Z,25.02
2022-11-06T07:12:45.654Z,23.73
2022-11-06T07:15:32.327Z,25.08
2022-11-06T07:18:18.089Z,25.17
2022-11-06T07:21:12.137Z,21.52
2022-11-06T07:23:58.135Z,20.77
2022-11-06T07:26:43.936Z,16.60
2022-11-06T07:29:29.437Z,15.35
2022-11-06T07:32:15.014Z,13.90
2022-11-06T07:35:00.603Z,14.32
2022-11-06T07:37:46.191Z,14.27
2022-11-06T07:40:35.850Z,15.70
2022-11-06T07:43:21.498Z,14.25
2022-11-06T07:46:09.278Z,13.95
2022-11-06T07:48:55.145Z,15.27
2022-11-06T07:51:40.453Z,15.32
2022-11-06T07:54:26.550Z,13.43
2022-11-06T07:57:12.512Z,13.15
2022-11-06T07:59:58.266Z,14.88
2022-11-06T08:02:44.630Z,14.90
2022-11-06T08:05:31.164Z,13.32
2022-11-06T08:08:17.204Z,14.18
2022-11-06T08:11:08.727Z,13.20
2022-11-06T08:13:54.584Z,13.00
2022-11-06T08:16:39.931Z,13.40
2022-11-06T08:19:25.882Z,12.63
2022-11-06T08:22:11.811Z,13.68
2022-11-06T08:24:57.381Z,13.82
2022-11-06T08:27:43.028Z,13.95
2022-11-06T08:30:33.311Z,13.68
2022-11-06T08:33:20.974Z,13.85
2022-11-06T08:36:09.962Z,12.35
2022-11-06T08:38:56.255Z,12.23
2022-11-06T08:41:43.211Z,11.90
2022-11-06T08:44:33.363Z,13.18
2022-11-06T08:47:18.956Z,11.40
2022-11-06T08:50:05.612Z,12.40
2022-11-06T08:52:51.021Z,13.05
2022-11-06T08:55:38.540Z,13.10
2022-11-06T08:58:24.807Z,14.07
2022-11-06T09:01:10.617Z,14.63
2022-11-06T09:03:56.014Z,14.02
2022-11-06T09:06:41.373Z,13.75
2022-11-06T09:09:31.992Z,14.90
2022-11-06T09:12:17.970Z,14.32
2022-11-06T09:15:03.759Z,13.85
2022-11-06T09:17:51.934Z,15.43
2022-11-06T09:20:38.041Z,15.43
2022-11-06T09:23:24.197Z,14.73
2022-11-06T09:26:09.848Z,14.95
2022-11-06T09:28:55.631Z,15.13
2022-11-06T09:31:43.100Z,14.65
2022-11-06T09:34:28.470Z,14.35
2022-11-06T09:37:13.996Z,15.05
2022-11-06T09:40:04.760Z,14.15
2022-11-06T09:43:05.332Z,15.35
2022-11-06T09:45:55.004Z,15.70
2022-11-06T09:48:46.036Z,15.35
2022-11-06T09:51:58.687Z,16.67
2022-11-06T09:54:57.532Z,16.63
2022-11-06T09:57:59.737Z,14.75
2022-11-06T10:00:45.337Z,16.83
2022-11-06T10:03:41.974Z,15.68
2022-11-06T10:06:28.778Z,15.57
2022-11-06T10:09:14.618Z,16.80
2022-11-06T10:12:29.339Z,19.23
2022-11-06T10:15:24.914Z,17.50
2022-11-06T10:18:37.179Z,17.45
2022-11-06T10:21:28.130Z,20.90
2022-11-06T10:24:47.009Z,19.27
2022-11-06T10:27:42.462Z,19.23
2022-11-06T10:31:17.345Z,18.30
2022-11-06T10:34:21.366Z,18.42
2022-11-06T10:37:24.551Z,17.25
2022-11-06T10:40:18.833Z,21.45
2022-11-06T10:43:29.194Z,17.10
2022-11-06T10:46:17.862Z,16.30
2022-11-06T10:49:23.353Z,16.73
2022-11-06T10:52:27.676Z,15.65
2022-11-06T10:55:35.099Z,15.80
2022-11-06T10:58:26.680Z,16.77
2022-11-06T11:01:14.852Z,15.63
2022-11-06T11:04:01.237Z,17.00
2022-11-06T11:06:46.727Z,17.80
2022-11-06T11:09:33.764Z,16.13
2022-11-06T11:12:27.017Z,16.75
2022-11-06T11:15:12.600Z,17.90
2022-11-06T11:18:34.404Z,17.08
2022-11-06T11:21:19.942Z,18.10
2022-11-06T11:24:12.020Z,19.35
2022-11-06T11:29:50.484Z,18.30
2022-11-06T11:32:36.057Z,18.00
2022-11-06T11:35:27.932Z,18.45
2022-11-06T11:38:15.752Z,16.58
2022-11-06T11:41:19.621Z,17.77
2022-11-06T11:44:14.257Z,16.95
2022-11-06T11:46:59.724Z,17.80
2022-11-06T11:49:45.699Z,17.17
2022-11-06T11:52:31.139Z,18.15
2022-11-06T11:55:23.961Z,18.65
2022-11-06T11:58:28.821Z,19.55
2022-11-06T12:01:14.498Z,19.08
2022-11-06T12:04:00.524Z,18.65
2022-11-06T12:06:58.783Z,18.02
2022-11-06T12:09:45.145Z,18.08
2022-11-06T12:12:33.419Z,18.00
2022-11-06T12:15:40.523Z,19.70
2022-11-06T12:18:34.586Z,20.40
2022-11-06T12:21:38.841Z,20.08
2022-11-06T12:24:52.729Z,19.63
2022-11-06T12:27:42.632Z,17.92
2022-11-06T12:30:33.143Z,17.90
2022-11-06T12:33:59.572Z,18.88
2022-11-06T12:36:39.356Z,19.90
2022-11-06T12:39:29.938Z,18.55
2022-11-06T12:42:18.866Z,19.33
2022-11-06T12:45:12.158Z,19.50
2022-11-06T12:48:10.746Z,19.48
2022-11-06T12:51:02.280Z,19.25
2022-11-06T12:54:30.730Z,19.77
2022-11-06T12:57:42.149Z,20.65
2022-11-06T13:00:36.003Z,19.13
2022-11-06T13:03:40.410Z,19.80
2022-11-06T13:07:00.652Z,19.60
2022-11-06T13:09:45.922Z,19.45
2022-11-06T13:12:48.019Z,19.85
2022-11-06T13:15:52.281Z,19.40
2022-11-06T13:18:40.387Z,19.23
2022-11-06T13:21:50.873Z,18.77
2022-11-06T13:24:58.922Z,20.63
2022-11-06T13:27:56.108Z,18.55
2022-11-06T13:30:42.964Z,19.40
2022-11-06T13:33:34.239Z,20.15
2022-11-06T13:36:20.893Z,21.63
2022-11-06T13:39:22.301Z,21.67
2022-11-06T13:42:23.597Z,19.85
2022-11-06T13:45:14.878Z,21.35
2022-11-06T13:48:19.011Z,21.02
2022-11-06T13:51:11.491Z,21.48
2022-11-06T13:54:24.047Z,20.83
2022-11-06T14:00:51.747Z,19.42
2022-11-06T14:04:08.976Z,19.08
2022-11-06T14:06:59.204Z,19.17
2022-11-06T14:09:46.886Z,24.70
2022-11-06T14:12:35.046Z,30.10
2022-11-06T14:15:31.320Z,28.73
2022-11-06T14:18:26.049Z,21.75
2022-11-06T14:21:44.817Z,20.40
2022-11-06T14:24:35.243Z,18.08
2022-11-06T14:27:23.701Z,18.05
2022-11-06T14:30:15.350Z,19.33
2022-11-06T14:33:00.880Z,21.42
2022-11-06T14:35:46.586Z,24.48
2022-11-06T14:38:34.106Z,21.17
2022-11-06T14:41:35.066Z,20.48
2022-11-06T14:44:29.590Z,19.30
2022-11-06T14:47:30.050Z,20.90
2022-11-06T14:50:18.447Z,20.55
2022-11-06T14:53:21.173Z,19.60
2022-11-06T14:59:01.039Z,15.95
2022-11-06T15:01:57.791Z,17.40
2022-11-06T15:04:54.668Z,17.08
2022-11-06T15:10:45.776Z,17.70
2022-11-06T15:13:31.194Z,18.45
2022-11-06T15:16:16.959Z,21.20
2022-11-06T15:19:05.588Z,19.58
2022-11-06T15:22:09.071Z,17.73
2022-11-06T15:25:17.920Z,19.77
2022-11-06T15:28:11.988Z,20.85
2022-11-06T15:31:11.941Z,21.00
2022-11-06T15:34:05.976Z,28.08
2022-11-06T15:36:58.509Z,22.00
2022-11-06T15:39:52.621Z,19.95
2022-11-06T15:42:42.012Z,19.98
2022-11-06T15:45:29.641Z,20.95
2022-11-06T15:48:24.750Z,22.35
2022-11-06T15:51:29.390Z,21.77
2022-11-06T15:54:31.010Z,21.25
2022-11-06T15:57:25.586Z,28.90
2022-11-06T16:00:21.029Z,24.42
2022-11-06T16:03:07.562Z,23.30
2022-11-06T16:05:56.581Z,24.02
2022-11-06T16:08:43.432Z,24.88
2022-11-06T16:11:29.947Z,22.10
2022-11-06T16:14:16.945Z,23.23
2022-11-06T16:17:12.370Z,26.88
2022-11-06T16:20:02.687Z,28.65
2022-11-06T16:22:49.710Z,19.80
2022-11-06T16:25:35.246Z,19.33
2022-11-06T16:28:22.558Z,21.42
2022-11-06T16:31:18.111Z,22.17
2022-11-06T16:34:07.524Z,22.38
2022-11-06T16:37:02.916Z,23.70
2022-11-06T16:39:54.070Z,24.02
2022-11-06T16:42:40.423Z,22.75
2022-11-06T16:45:26.889Z,23.25
2022-11-06T16:48:12.596Z,28.33
2022-11-06T16:51:02.363Z,25.67
2022-11-06T16:53:50.690Z,31.83
2022-11-06T16:56:36.503Z,28.90
2022-11-06T16:59:25.149Z,30.63
2022-11-06T17:02:22.017Z,27.52
2022-11-06T17:05:12.474Z,26.63
2022-11-06T17:08:07.321Z,25.27
2022-11-06T17:10:57.536Z,21.70
2022-11-06T17:13:45.896Z,22.00
2022-11-06T17:16:44.710Z,22.90
2022-11-06T17:19:30.679Z,22.95
2022-11-06T17:22:17.308Z,22.67
2022-11-06T17:25:03.536Z,21.50
2022-11-06T17:27:48.952Z,21.48
2022-11-06T17:30:35.294Z,22.83
2022-11-06T17:33:21.481Z,23.75
2022-11-06T17:36:14.331Z,22.75
2022-11-06T17:39:01.410Z,21.23
2022-11-06T17:41:47.887Z,25.10
2022-11-06T17:44:33.943Z,27.65
2022-11-06T17:47:19.660Z,28.67
2022-11-06T17:50:06.801Z,23.15
2022-11-06T17:52:52.414Z,22.27
2022-11-06T17:55:38.155Z,24.83
2022-11-06T17:58:23.698Z,23.83
2022-11-06T18:01:11.582Z,25.65
2022-11-06T18:04:00.419Z,24.50
2022-11-06T18:06:48.885Z,22.92
2022-11-06T18:09:36.263Z,22.60
2022-11-06T18:12:28.655Z,23.42
2022-11-06T18:15:17.041Z,22.83
2022-11-06T18:18:06.811Z,23.80
2022-11-06T18:20:53.813Z,22.35
2022-11-06T18:23:41.432Z,24.52
2022-11-06T18:26:27.501Z,23.20
2022-11-06T18:29:13.590Z,25.20
2022-11-06T18:32:02.119Z,23.45
2022-11-06T18:34:48.701Z,24.30
2022-11-06T18:37:36.799Z,25.38
2022-11-06T18:40:22.434Z,25.17
2022-11-06T18:43:08.415Z,25.73
2022-11-06T18:46:04.588Z,28.67
2022-11-06T18:49:00.787Z,32.67
2022-11-06T18:51:46.486Z,35.95
2022-11-06T18:54:31.851Z,34.17
2022-11-06T18:57:17.348Z,28.48
2022-11-06T19:00:03.430Z,27.73
2022-11-06T19:02:49.271Z,26.88
2022-11-06T19:05:34.910Z,26.60
2022-11-06T19:08:20.932Z,25.27
2022-11-06T19:11:08.587Z,25.38
2022-11-06T19:13:54.288Z,25.88
2022-11-06T19:16:40.062Z,26.83
2022-11-06T19:19:26.217Z,27.08
2022-11-06T19:22:11.803Z,29.00
2022-11-06T19:24:57.404Z,25.33
2022-11-06T19:27:43.268Z,27.23
2022-11-06T19:30:28.656Z,30.83
2022-11-06T19:33:15.000Z,29.75
2022-11-06T19:36:02.402Z,28.08
2022-11-06T19:38:48.804Z,25.92
2022-11-06T19:41:36.488Z,24.98
2022-11-06T19:44:22.540Z,26.70
2022-11-06T19:47:08.611Z,24.92
2022-11-06T19:49:54.937Z,25.27
2022-11-06T19:52:45.539Z,26.98
2022-11-06T19:55:33.393Z,24.20
2022-11-06T19:58:20.674Z,24.25
2022-11-06T20:01:08.241Z,24.23
2022-11-06T20:03:54.206Z,22.83
2022-11-06T20:06:41.282Z,24.98
2022-11-06T20:09:28.939Z,25.45
2022-11-06T20:12:16.083Z,27.10
2022-11-06T20:15:01.136Z,23.83
2022-11-06T20:17:47.994Z,22.55
2022-11-06T20:20:36.423Z,25.95
2022-11-06T20:23:22.858Z,25.67
2022-11-06T20:26:08.382Z,23.20
2022-11-06T20:28:54.140Z,25.65
2022-11-06T20:31:39.978Z,26.20
2022-11-06T20:34:25.386Z,23.98
2022-11-06T20:37:10.808Z,25.02
2022-11-06T20:39:56.599Z,24.05
2022-11-06T20:42:42.360Z,24.38
2022-11-06T20:45:28.122Z,24.83
2022-11-06T20:48:13.425Z,25.30
2022-11-06T20:51:01.580Z,22.23
2022-11-06T20:53:47.638Z,26.63
2022-11-06T20:56:35.389Z,34.97
2022-11-06T20:59:21.105Z,38.58
2022-11-06T21:02:07.437Z,38.05
2022-11-06T21:04:52.993Z,38.20
2022-11-06T21:07:40.928Z,34.30
2022-11-06T21:10:26.376Z,31.13
2022-11-06T21:13:12.536Z,27.98
2022-11-06T21:16:06.368Z,23.10
2022-11-06T21:18:52.500Z,21.70
2022-11-06T21:21:38.986Z,19.88
2022-11-06T21:24:24.961Z,20.45
2022-11-06T21:27:11.591Z,20.85
2022-11-06T21:30:00.535Z,20.42
2022-11-06T21:32:45.950Z,22.20
2022-11-06T21:35:31.343Z,22.88
2022-11-06T21:38:17.049Z,23.10
2022-11-06T21:41:15.215Z,22.83
2022-11-06T21:44:06.571Z,20.23
2022-11-06T21:46:53.270Z,19.17
2022-11-06T21:49:38.622Z,21.35
2022-11-06T21:52:42.748Z,18.85
2022-11-06T21:55:52.778Z,19.85
2022-11-06T21:58:39.770Z,18.80
2022-11-06T22:01:27.093Z,18.73
2022-11-06T22:04:13.760Z,20.30
2022-11-06T22:06:59.374Z,19.10
2022-11-06T22:09:45.142Z,20.15
2022-11-06T22:12:30.530Z,18.67
2022-11-06T22:15:16.286Z,19.80
2022-11-06T22:18:02.110Z,19.98
2022-11-06T22:20:47.822Z,18.45
2022-11-06T22:23:34.508Z,19.38
2022-11-06T22:26:22.666Z,18.65
2022-11-06T22:29:12.071Z,17.88
2022-11-06T22:31:57.467Z,18.67
2022-11-06T22:34:44.415Z,18.70
2022-11-06T22:37:30.153Z,17.33
2022-11-06T22:40:15.607Z,17.42
2022-11-06T22:43:01.111Z,17.73
2022-11-06T22:45:47.087Z,17.17
2022-11-06T22:48:33.154Z,16.08
2022-11-06T22:51:21.904Z,16.02
2022-11-06T22:54:07.535Z,16.52
2022-11-06T22:56:53.257Z,15.75
2022-11-06T22:59:39.059Z,15.55
2022-11-06T23:02:25.480Z,16.33
2022-11-06T23:05:11.073Z,17.10
2022-11-06T23:07:56.446Z,15.50
2022-11-06T23:10:42.432Z,14.43
2022-11-06T23:13:28.009Z,14.52
2022-11-06T23:16:40.243Z,14.68
2022-11-06T23:19:26.087Z,12.98
2022-11-06T23:22:30.151Z,13.80
2022-11-06T23:25:17.480Z,12.82
2022-11-06T23:28:03.041Z,14.73
2022-11-06T23:30:49.665Z,13.43
2022-11-06T23:33:35.417Z,13.15
2022-11-06T23:36:21.282Z,13.52
2022-11-06T23:39:06.711Z,13.32
2022-11-06T23:41:52.262Z,12.80
2022-11-06T23:44:56.211Z,13.57
2022-11-06T23:47:41.760Z,13.65
2022-11-06T23:50:27.195Z,12.90
2022-11-06T23:53:17.210Z,13.63
2022-11-06T23:56:07.466Z,13.25
2022-11-06T23:58:52.888Z,12.65
